sensor_id;sensor_type;location;lat;lon;timestamp;pressure;altitude;pressure_sealevel;temperature;humidity
81464;BME280;70885;52.490;5.428;2023-06-26T00:06:41;101205.25;;;23.61;58.43
81464;BME280;70885;52.490;5.428;2023-06-26T00:16:43;101199.56;;;23.38;58.61
81464;BME280;70885;52.490;5.428;2023-06-26T00:26:47;101201.22;;;23.39;57.78
81464;BME280;70885;52.490;5.428;2023-06-26T00:36:48;101183.81;;;23.29;58.64
81464;BME280;70885;52.490;5.428;2023-06-26T00:46:50;101181.13;;;23.10;57.14
81464;BME280;70885;52.490;5.428;2023-06-26T00:56:52;101191.19;;;23.11;58.14
81464;BME280;70885;52.490;5.428;2023-06-26T01:06:54;101181.22;;;23.18;59.00
81464;BME280;70885;52.490;5.428;2023-06-26T01:16:56;101193.47;;;22.95;59.35
81464;BME280;70885;52.490;5.428;2023-06-26T01:26:59;101205.09;;;23.02;61.56
81464;BME280;70885;52.490;5.428;2023-06-26T01:37:02;101212.63;;;23.15;59.40
81464;BME280;70885;52.490;5.428;2023-06-26T01:47:04;101216.78;;;23.04;60.65
81464;BME280;70885;52.490;5.428;2023-06-26T01:57:08;101212.88;;;22.73;61.10
81464;BME280;70885;52.490;5.428;2023-06-26T02:07:10;101223.81;;;22.55;62.87
81464;BME280;70885;52.490;5.428;2023-06-26T02:17:12;101210.41;;;22.38;63.58
81464;BME280;70885;52.490;5.428;2023-06-26T02:27:14;101233.31;;;22.03;65.25
81464;BME280;70885;52.490;5.428;2023-06-26T02:37:15;101235.00;;;21.85;65.55
81464;BME280;70885;52.490;5.428;2023-06-26T02:47:17;101233.66;;;21.77;66.44
81464;BME280;70885;52.490;5.428;2023-06-26T02:57:19;101234.19;;;21.60;67.84
81464;BME280;70885;52.490;5.428;2023-06-26T03:07:20;101251.84;;;21.32;69.16
81464;BME280;70885;52.490;5.428;2023-06-26T03:17:22;101247.13;;;21.27;68.23
81464;BME280;70885;52.490;5.428;2023-06-26T03:27:23;101256.81;;;21.11;68.61
81464;BME280;70885;52.490;5.428;2023-06-26T03:37:25;101280.31;;;21.10;68.83
81464;BME280;70885;52.490;5.428;2023-06-26T03:47:27;101293.22;;;21.00;68.86
81464;BME280;70885;52.490;5.428;2023-06-26T03:57:28;101294.13;;;20.62;70.81
81464;BME280;70885;52.490;5.428;2023-06-26T04:07:30;101320.16;;;20.47;70.40
81464;BME280;70885;52.490;5.428;2023-06-26T04:17:32;101321.53;;;20.49;70.33
81464;BME280;70885;52.490;5.428;2023-06-26T04:27:34;101322.81;;;20.28;71.14
81464;BME280;70885;52.490;5.428;2023-06-26T04:37:37;101345.91;;;20.33;68.79
81464;BME280;70885;52.490;5.428;2023-06-26T04:47:40;101363.06;;;20.06;67.01
81464;BME280;70885;52.490;5.428;2023-06-26T04:57:41;101389.56;;;20.04;64.90
81464;BME280;70885;52.490;5.428;2023-06-26T05:07:43;101374.19;;;20.12;66.77
81464;BME280;70885;52.490;5.428;2023-06-26T05:17:44;101397.94;;;19.94;65.33
81464;BME280;70885;52.490;5.428;2023-06-26T05:27:46;101398.25;;;19.92;66.50
81464;BME280;70885;52.490;5.428;2023-06-26T05:37:49;101411.28;;;20.02;65.69
81464;BME280;70885;52.490;5.428;2023-06-26T05:47:51;101423.84;;;20.04;64.50
81464;BME280;70885;52.490;5.428;2023-06-26T05:57:53;101434.72;;;20.01;64.95
81464;BME280;70885;52.490;5.428;2023-06-26T06:07:55;101457.06;;;19.85;66.22
81464;BME280;70885;52.490;5.428;2023-06-26T06:17:57;101481.88;;;19.72;68.07
81464;BME280;70885;52.490;5.428;2023-06-26T06:27:58;101493.53;;;19.99;66.92
81464;BME280;70885;52.490;5.428;2023-06-26T06:38:00;101509.38;;;20.09;66.23
81464;BME280;70885;52.490;5.428;2023-06-26T06:48:01;101535.38;;;19.89;68.09
81464;BME280;70885;52.490;5.428;2023-06-26T06:58:03;101543.19;;;19.82;67.13
81464;BME280;70885;52.490;5.428;2023-06-26T07:08:06;101559.28;;;20.05;66.77
81464;BME280;70885;52.490;5.428;2023-06-26T07:18:08;101568.19;;;20.28;66.26
81464;BME280;70885;52.490;5.428;2023-06-26T07:28:11;101583.81;;;20.29;64.87
81464;BME280;70885;52.490;5.428;2023-06-26T07:38:21;101586.63;;;20.08;67.20
81464;BME280;70885;52.490;5.428;2023-06-26T07:44:22;101587.09;;;20.41;66.16
81464;BME280;70885;52.490;5.428;2023-06-26T07:50:24;101598.31;;;20.26;66.30
81464;BME280;70885;52.490;5.428;2023-06-26T07:56:26;101608.91;;;20.19;66.15
81464;BME280;70885;52.490;5.428;2023-06-26T08:02:27;101612.81;;;20.13;67.22
81464;BME280;70885;52.490;5.428;2023-06-26T08:08:29;101612.81;;;20.02;67.00
81464;BME280;70885;52.490;5.428;2023-06-26T08:14:30;101617.56;;;20.12;66.16
81464;BME280;70885;52.490;5.428;2023-06-26T08:20:32;101622.81;;;20.44;65.44
81464;BME280;70885;52.490;5.428;2023-06-26T08:26:37;101635.09;;;20.33;66.42
81464;BME280;70885;52.490;5.428;2023-06-26T08:32:39;101637.34;;;20.36;66.10
81464;BME280;70885;52.490;5.428;2023-06-26T08:38:41;101656.34;;;20.03;67.18
81464;BME280;70885;52.490;5.428;2023-06-26T08:44:42;101658.81;;;19.84;68.15
81464;BME280;70885;52.490;5.428;2023-06-26T08:51:07;101660.78;;;20.04;68.09
81464;BME280;70885;52.490;5.428;2023-06-26T08:57:10;101675.56;;;20.15;66.71
81464;BME280;70885;52.490;5.428;2023-06-26T09:03:12;101683.63;;;20.17;66.98
81464;BME280;70885;52.490;5.428;2023-06-26T09:09:14;101690.59;;;20.19;65.57
81464;BME280;70885;52.490;5.428;2023-06-26T09:15:19;101687.56;;;20.21;64.06
81464;BME280;70885;52.490;5.428;2023-06-26T09:21:22;101705.66;;;20.23;65.24
81464;BME280;70885;52.490;5.428;2023-06-26T09:27:25;101721.28;;;20.40;63.41
81464;BME280;70885;52.490;5.428;2023-06-26T09:33:27;101724.94;;;20.61;62.85
81464;BME280;70885;52.490;5.428;2023-06-26T09:39:32;101729.41;;;20.51;62.36
81464;BME280;70885;52.490;5.428;2023-06-26T09:45:34;101741.66;;;20.40;61.84
81464;BME280;70885;52.490;5.428;2023-06-26T09:51:40;101748.91;;;20.46;61.63
81464;BME280;70885;52.490;5.428;2023-06-26T09:57:42;101746.38;;;20.45;61.71
81464;BME280;70885;52.490;5.428;2023-06-26T10:03:47;101749.19;;;20.70;60.34
81464;BME280;70885;52.490;5.428;2023-06-26T10:09:50;101752.81;;;20.66;59.33
81464;BME280;70885;52.490;5.428;2023-06-26T10:15:53;101764.25;;;20.79;58.13
81464;BME280;70885;52.490;5.428;2023-06-26T10:21:55;101773.41;;;21.05;57.27
81464;BME280;70885;52.490;5.428;2023-06-26T10:27:59;101791.84;;;21.17;54.90
81464;BME280;70885;52.490;5.428;2023-06-26T10:34:02;101796.59;;;21.06;55.04
81464;BME280;70885;52.490;5.428;2023-06-26T10:40:04;101789.03;;;21.12;53.00
81464;BME280;70885;52.490;5.428;2023-06-26T10:46:08;101790.69;;;21.13;53.98
81464;BME280;70885;52.490;5.428;2023-06-26T10:52:10;101782.66;;;20.80;54.62
81464;BME280;70885;52.490;5.428;2023-06-26T11:04:44;101809.69;;;21.16;54.86
81464;BME280;70885;52.490;5.428;2023-06-26T11:10:54;101819.78;;;20.96;55.00
81464;BME280;70885;52.490;5.428;2023-06-26T11:16:57;101832.63;;;20.87;54.30
81464;BME280;70885;52.490;5.428;2023-06-26T11:22:59;101836.19;;;21.23;55.23
81464;BME280;70885;52.490;5.428;2023-06-26T11:29:01;101846.88;;;21.06;54.60
81464;BME280;70885;52.490;5.428;2023-06-26T11:35:03;101835.94;;;21.15;54.48
81464;BME280;70885;52.490;5.428;2023-06-26T11:41:06;101842.13;;;21.07;54.68
81464;BME280;70885;52.490;5.428;2023-06-26T11:47:17;101859.69;;;21.12;55.86
81464;BME280;70885;52.490;5.428;2023-06-26T11:53:19;101880.88;;;21.23;55.33
81464;BME280;70885;52.490;5.428;2023-06-26T11:59:21;101901.59;;;21.17;56.47
81464;BME280;70885;52.490;5.428;2023-06-26T12:05:22;101892.66;;;21.00;56.60
81464;BME280;70885;52.490;5.428;2023-06-26T12:11:24;101899.34;;;20.89;55.43
81464;BME280;70885;52.490;5.428;2023-06-26T12:17:28;101903.53;;;20.76;55.65
81464;BME280;70885;52.490;5.428;2023-06-26T12:23:33;101906.31;;;20.81;55.50
81464;BME280;70885;52.490;5.428;2023-06-26T12:29:38;101898.50;;;20.83;56.12
81464;BME280;70885;52.490;5.428;2023-06-26T12:35:40;101909.66;;;20.83;56.78
81464;BME280;70885;52.490;5.428;2023-06-26T12:42:02;101922.53;;;20.99;55.85
81464;BME280;70885;52.490;5.428;2023-06-26T12:48:13;101933.69;;;20.94;54.35
81464;BME280;70885;52.490;5.428;2023-06-26T12:54:15;101935.94;;;20.92;56.31
81464;BME280;70885;52.490;5.428;2023-06-26T13:00:17;101943.47;;;20.82;56.04
81464;BME280;70885;52.490;5.428;2023-06-26T13:06:19;101940.66;;;20.97;55.22
81464;BME280;70885;52.490;5.428;2023-06-26T13:12:20;101938.44;;;21.19;53.52
81464;BME280;70885;52.490;5.428;2023-06-26T13:18:22;101945.41;;;21.22;54.13
81464;BME280;70885;52.490;5.428;2023-06-26T13:24:23;101949.03;;;21.02;55.25
81464;BME280;70885;52.490;5.428;2023-06-26T13:30:24;101952.41;;;20.89;53.48
81464;BME280;70885;52.490;5.428;2023-06-26T13:36:26;101959.94;;;21.19;53.31
81464;BME280;70885;52.490;5.428;2023-06-26T13:42:28;101949.34;;;21.11;53.90
81464;BME280;70885;52.490;5.428;2023-06-26T13:48:30;101954.38;;;21.60;51.92
81464;BME280;70885;52.490;5.428;2023-06-26T13:54:34;101952.69;;;21.48;52.24
81464;BME280;70885;52.490;5.428;2023-06-26T14:00:37;101954.91;;;21.62;50.83
81464;BME280;70885;52.490;5.428;2023-06-26T14:06:39;101956.56;;;21.73;51.81
81464;BME280;70885;52.490;5.428;2023-06-26T14:12:41;101969.72;;;21.06;52.02
81464;BME280;70885;52.490;5.428;2023-06-26T14:18:42;101969.47;;;21.38;50.48
81464;BME280;70885;52.490;5.428;2023-06-26T14:24:44;101983.94;;;21.81;52.38
81464;BME280;70885;52.490;5.428;2023-06-26T14:30:45;101991.25;;;21.67;49.19
81464;BME280;70885;52.490;5.428;2023-06-26T14:36:47;101977.84;;;21.43;51.46
81464;BME280;70885;52.490;5.428;2023-06-26T14:42:49;101988.97;;;21.79;49.29
81464;BME280;70885;52.490;5.428;2023-06-26T14:48:51;101988.44;;;21.51;48.83
81464;BME280;70885;52.490;5.428;2023-06-26T14:54:52;101993.44;;;21.19;52.11
81464;BME280;70885;52.490;5.428;2023-06-26T15:00:54;101998.66;;;22.12;50.38
81464;BME280;70885;52.490;5.428;2023-06-26T15:06:57;101992.91;;;21.78;49.56
81464;BME280;70885;52.490;5.428;2023-06-26T15:12:59;101995.59;;;22.19;48.62
81464;BME280;70885;52.490;5.428;2023-06-26T15:19:00;101992.84;;;21.93;50.79
81464;BME280;70885;52.490;5.428;2023-06-26T15:25:02;101989.63;;;22.41;49.49
81464;BME280;70885;52.490;5.428;2023-06-26T15:31:04;101988.94;;;22.64;48.34
81464;BME280;70885;52.490;5.428;2023-06-26T15:37:05;101992.56;;;22.70;45.53
81464;BME280;70885;52.490;5.428;2023-06-26T15:43:07;101986.91;;;22.26;47.22
81464;BME280;70885;52.490;5.428;2023-06-26T15:49:08;101986.47;;;22.58;47.72
81464;BME280;70885;52.490;5.428;2023-06-26T15:55:10;101981.97;;;22.62;46.58
81464;BME280;70885;52.490;5.428;2023-06-26T16:01:12;101984.13;;;22.75;45.01
81464;BME280;70885;52.490;5.428;2023-06-26T16:07:14;101982.41;;;22.79;44.67
81464;BME280;70885;52.490;5.428;2023-06-26T16:13:15;101986.88;;;22.80;44.84
81464;BME280;70885;52.490;5.428;2023-06-26T16:19:20;101983.72;;;22.53;43.62
81464;BME280;70885;52.490;5.428;2023-06-26T16:25:22;101984.75;;;22.67;41.91
81464;BME280;70885;52.490;5.428;2023-06-26T16:31:23;101984.09;;;22.80;41.26
81464;BME280;70885;52.490;5.428;2023-06-26T16:37:25;101991.03;;;22.93;43.11
81464;BME280;70885;52.490;5.428;2023-06-26T16:43:27;101980.94;;;23.31;46.00
81464;BME280;70885;52.490;5.428;2023-06-26T16:49:28;101978.97;;;23.32;41.79
81464;BME280;70885;52.490;5.428;2023-06-26T16:55:30;101977.44;;;23.15;42.75
81464;BME280;70885;52.490;5.428;2023-06-26T17:01:31;101977.59;;;23.29;39.35
81464;BME280;70885;52.490;5.428;2023-06-26T17:07:34;101973.53;;;23.46;39.43
81464;BME280;70885;52.490;5.428;2023-06-26T17:13:36;101988.03;;;23.53;40.36
81464;BME280;70885;52.490;5.428;2023-06-26T17:19:38;101991.00;;;23.37;39.78
81464;BME280;70885;52.490;5.428;2023-06-26T17:25:40;101995.50;;;23.33;40.45
81464;BME280;70885;52.490;5.428;2023-06-26T17:31:42;101994.38;;;23.34;43.20
81464;BME280;70885;52.490;5.428;2023-06-26T17:37:43;102004.75;;;22.40;42.76
81464;BME280;70885;52.490;5.428;2023-06-26T17:43:45;102003.00;;;22.59;42.68
81464;BME280;70885;52.490;5.428;2023-06-26T17:49:47;102006.06;;;22.63;42.28
81464;BME280;70885;52.490;5.428;2023-06-26T17:55:48;102014.75;;;22.56;42.47
81464;BME280;70885;52.490;5.428;2023-06-26T18:01:50;102015.03;;;23.09;42.55
81464;BME280;70885;52.490;5.428;2023-06-26T18:07:52;102016.94;;;22.64;42.56
81464;BME280;70885;52.490;5.428;2023-06-26T18:14:05;102030.75;;;22.45;41.80
81464;BME280;70885;52.490;5.428;2023-06-26T18:20:07;102031.81;;;22.60;41.21
81464;BME280;70885;52.490;5.428;2023-06-26T18:26:09;102032.97;;;22.54;45.09
81464;BME280;70885;52.490;5.428;2023-06-26T18:32:11;102033.22;;;22.57;42.13
81464;BME280;70885;52.490;5.428;2023-06-26T18:38:12;102038.53;;;22.59;43.59
81464;BME280;70885;52.490;5.428;2023-06-26T18:44:14;102040.78;;;22.52;45.64
81464;BME280;70885;52.490;5.428;2023-06-26T18:50:16;102041.97;;;22.40;43.31
81464;BME280;70885;52.490;5.428;2023-06-26T18:56:19;102026.84;;;22.46;42.44
81464;BME280;70885;52.490;5.428;2023-06-26T19:02:20;102023.88;;;22.17;43.22
81464;BME280;70885;52.490;5.428;2023-06-26T19:08:22;102037.63;;;21.88;42.82
81464;BME280;70885;52.490;5.428;2023-06-26T19:15:48;102034.25;;;21.76;44.24
81464;BME280;70885;52.490;5.428;2023-06-26T19:20:49;102025.28;;;21.84;45.09
81464;BME280;70885;52.490;5.428;2023-06-26T19:25:51;102042.38;;;21.78;45.50
81464;BME280;70885;52.490;5.428;2023-06-26T19:30:52;102039.84;;;21.66;47.46
81464;BME280;70885;52.490;5.428;2023-06-26T19:35:54;102052.19;;;21.49;47.75
81464;BME280;70885;52.490;5.428;2023-06-26T19:40:56;102046.31;;;21.46;48.16
81464;BME280;70885;52.490;5.428;2023-06-26T19:45:58;102051.56;;;21.17;49.56
81464;BME280;70885;52.490;5.428;2023-06-26T19:51:01;102052.69;;;21.26;47.61
81464;BME280;70885;52.490;5.428;2023-06-26T19:56:04;102059.09;;;21.26;48.47
81464;BME280;70885;52.490;5.428;2023-06-26T20:01:06;102056.56;;;21.04;45.63
81464;BME280;70885;52.490;5.428;2023-06-26T20:06:07;102069.91;;;20.82;45.65
81464;BME280;70885;52.490;5.428;2023-06-26T20:11:09;102061.75;;;20.70;46.53
81464;BME280;70885;52.490;5.428;2023-06-26T20:16:11;102062.56;;;20.61;46.31
81464;BME280;70885;52.490;5.428;2023-06-26T20:21:13;102068.56;;;20.37;47.42
81464;BME280;70885;52.490;5.428;2023-06-26T20:26:14;102062.69;;;20.33;49.98
81464;BME280;70885;52.490;5.428;2023-06-26T20:31:16;102069.38;;;20.38;47.83
81464;BME280;70885;52.490;5.428;2023-06-26T20:36:17;102067.44;;;20.38;48.77
81464;BME280;70885;52.490;5.428;2023-06-26T20:41:19;102069.59;;;20.21;49.08
81464;BME280;70885;52.490;5.428;2023-06-26T20:46:21;102068.44;;;20.17;50.01
81464;BME280;70885;52.490;5.428;2023-06-26T20:51:29;102063.34;;;20.03;51.22
81464;BME280;70885;52.490;5.428;2023-06-26T20:56:31;102060.97;;;19.85;51.33
81464;BME280;70885;52.490;5.428;2023-06-26T21:01:33;102059.06;;;19.85;52.90
81464;BME280;70885;52.490;5.428;2023-06-26T21:06:35;102067.09;;;19.82;52.18
81464;BME280;70885;52.490;5.428;2023-06-26T21:11:36;102059.06;;;19.85;53.65
81464;BME280;70885;52.490;5.428;2023-06-26T21:16:37;102067.19;;;19.92;53.78
81464;BME280;70885;52.490;5.428;2023-06-26T21:21:39;102065.19;;;19.88;55.03
81464;BME280;70885;52.490;5.428;2023-06-26T21:26:41;102057.31;;;19.79;55.00
81464;BME280;70885;52.490;5.428;2023-06-26T21:31:42;102064.25;;;19.77;54.36
81464;BME280;70885;52.490;5.428;2023-06-26T21:36:44;102056.59;;;19.62;55.88
81464;BME280;70885;52.490;5.428;2023-06-26T21:41:45;102060.75;;;19.59;55.17
81464;BME280;70885;52.490;5.428;2023-06-26T21:46:47;102045.34;;;19.47;54.37
81464;BME280;70885;52.490;5.428;2023-06-26T21:51:49;102041.41;;;19.43;54.16
81464;BME280;70885;52.490;5.428;2023-06-26T21:56:51;102052.25;;;19.39;55.44
81464;BME280;70885;52.490;5.428;2023-06-26T22:01:52;102059.25;;;19.47;56.57
81464;BME280;70885;52.490;5.428;2023-06-26T22:06:54;102053.84;;;19.35;57.81
81464;BME280;70885;52.490;5.428;2023-06-26T22:11:56;102051.81;;;19.25;56.96
81464;BME280;70885;52.490;5.428;2023-06-26T22:16:58;102059.81;;;19.17;57.98
81464;BME280;70885;52.490;5.428;2023-06-26T22:22:00;102053.41;;;19.16;57.98
81464;BME280;70885;52.490;5.428;2023-06-26T22:27:01;102052.22;;;19.07;58.74
81464;BME280;70885;52.490;5.428;2023-06-26T22:32:03;102053.56;;;19.04;59.92
81464;BME280;70885;52.490;5.428;2023-06-26T22:37:05;102055.22;;;19.05;60.17
81464;BME280;70885;52.490;5.428;2023-06-26T22:42:07;102032.44;;;19.08;59.81
81464;BME280;70885;52.490;5.428;2023-06-26T22:47:11;102039.34;;;19.01;60.36
81464;BME280;70885;52.490;5.428;2023-06-26T22:52:12;102035.53;;;18.85;60.29
81464;BME280;70885;52.490;5.428;2023-06-26T22:57:14;102033.84;;;18.62;61.18
81464;BME280;70885;52.490;5.428;2023-06-26T23:02:15;102038.38;;;18.46;62.04
81464;BME280;70885;52.490;5.428;2023-06-26T23:07:17;102036.31;;;18.36;62.91
81464;BME280;70885;52.490;5.428;2023-06-26T23:12:21;102040.19;;;18.35;62.98
81464;BME280;70885;52.490;5.428;2023-06-26T23:17:23;102048.16;;;18.27;63.46
81464;BME280;70885;52.490;5.428;2023-06-26T23:22:24;102039.84;;;18.32;63.65
81464;BME280;70885;52.490;5.428;2023-06-26T23:27:26;102034.84;;;18.29;63.18
81464;BME280;70885;52.490;5.428;2023-06-26T23:32:27;102024.53;;;18.07;63.87
81464;BME280;70885;52.490;5.428;2023-06-26T23:37:29;102022.91;;;17.89;64.70
81464;BME280;70885;52.490;5.428;2023-06-26T23:42:31;102026.50;;;17.90;64.27
81464;BME280;70885;52.490;5.428;2023-06-26T23:47:32;102022.34;;;17.92;64.39
81464;BME280;70885;52.490;5.428;2023-06-26T23:52:34;102021.69;;;17.85;64.72
81464;BME280;70885;52.490;5.428;2023-06-26T23:57:35;102029.78;;;17.70;65.69
